Swartz Creek, Michigan
Current Conditions -  °F | °C
As of 7:53 AM on Sunday 21 Dec 2014 (Local Time) from KFNT Reporting Station
Haze Haze  
Wind Chill: 29°   Ceiling: 2800
Heat Index: 29°   Visibility: 6mi
Dew Point: 24°   Wind: 3mph
Humidity: 82%   Direction: 170°S
Pressure: 30.29"   Gusts: NA
Location:  42.96°N, 83.83°W
Report Text: KFNT 211253Z 17003KT 6SM HZ BKN028 OVC034 M02/M04 A3029 RMK AO2 SLP268 T10171044
Loading
Personal Weather Stations






























Interactive Weather Map New forecast layout! Learn more

10-Day Weather Forecast

Advertisements
Track Severe Weather on mobile